Timeline UpdatesTrip UpdatesNews PostsPvt Posts♥♥Travel TipsAdmin PostsConv PostsFollowed PostsChat RequestsBlog PostsPNR Posts

Disclaimer
Search
 
 
Sun Dec 21, 2014 03:47:25 ISTHomeTrainsΣChainsAtlasPNRForumGalleryNewsFAQTripsMembersLoginFeedback
PNR Super Search

Ticket PNR Status Inquiry - PNR: 810-xxxxxxx (E-Ticket)

OLD STATUS

Status Last Updated on: May 21 2012 (7:50PM) IST

Date of Journey: Tue May 22, 2012   Class: Sleeper - SL   (Total Seats available for this Class/Quota: Avbl >183)
Passenger 1: SX1,33/Coach Position:11 (Booking Status: W/L 43,GNWL)
Passenger 2: SX1,36/Coach Position:11 (Booking Status: W/L 44,GNWL)
Passenger 3: SX1,34/Coach Position:11 (Booking Status: W/L 45,GNWL)
Passenger 4: SX1,35/Coach Position:11 (Booking Status: W/L 46,GNWL)
Passenger 5: SX1,37/Coach Position:11 (Booking Status: W/L 47,GNWL)
Passenger 6: SX1,38/Coach Position:11 (Booking Status: W/L 48,GNWL)
Chart PREPARED

Mumbai Bandra Terminus- Dehradun Express/19019

Travel Time: 34h 46m    85 halts    Distance: 1408 km    Avg Speed: 40 km/hr
Type: Mail/Express
Zone: WR/Western
Departs @ 04:04 (Avg 4m late)
Platform# 1
SMTWTFS
Navsari/NVS 
Arrives @ 14:50 +1 night (Avg 45m late)
Platform# 1
SMTWTFS
Haridwar Junction/HW 

85 halts. 214 intermediate Stations between Navsari and Haridwar Junction

Show ALL intermediate Stations  Show Old Time-Table

#TrkCodeStation NameX/OArrivesAvgDepartsAvgHaltPFDay#KmSpeedElevZoneAddress
1/==/BDTSMumbai Bandra Terminus (5)  -00:05+011-222.6374mWRMumbai 400050, Maharashtra
2/==/BVIMumbai Borivali (8)  00:38 00:35+600:40+62 5m61-203.85019mWRMumbai - 400092, Maharashtra
3/==/BSRVasai Road (7)  01:03 01:01+201:05 01:03+42m31-186.4747mWRVasai 401202, Maharashtra
4/==/PLGPalghar (3)X  01:35+1501:37+182m11-146.85219mWRPalghar, Maharashtra
5/==/DRDDahanu Road (5)X  02:15+702:17+82m11-113.99112mWRDahanu, Maharashtra
6/==/VAPIVapi (3)X  02:49+1102:51+122m11-65.35427mWRVapi, Gujarat
7/==/BLValsad (3)X  03:23 03:20+503:25+82 5m11-39.15715mWRValsad, Gujarat
8/==/BIMBilimora Junction (4)X  03:44+403:46+42m11-21.27911mWRBilimora, Gujarat
9/==/NVSNavsari (3)»X  04:02+404:04+42m110.04914mWRNavsari, Gujarat
10/==/STSurat (4)X  04:40-204:45+05m1129.67219mWRSurat 395001, Gujarat
11/==/KSBKosamba Junction (3)05:11+405:13+42m--161.013930mWRKosamba, Gujarat
12/==/AKVAnkleshwar Junction (4)X  05:19 05:21+1005:21 05:23+102m1179.64319mWRAnkleshwar, Gujarat
13/==/BHBharuch Junction (5)X  05:34 05:36+805:36 05:38+82m3188.98719mWRBharuch, Gujarat
14/==/MYGMiyagam Karjan (2)  06:04 06:06+1306:06 06:08+132m21129.65629mWRKarjan, Gujarat
15/==/BRCVadodara Junction (7)XO  06:40+1706:50+1810m21159.46736mWRVadodara 390005, Gujarat
16/==/SMLASamlaya Junction (3)  07:12 07:14+1907:14 07:16+182m21186.06767mWRVadodara, Gujarat
17/==/CPNChampaner Road Junction  07:24 07:26+1307:26 07:28+132m21197.25478mWRPanchmahal, Gujarat
18/==/DRLDerolX  07:40 07:42+1107:42 07:44+112m21209.77681mWRKalol, Gujarat
19/==/KRSAKharsaliya (2)X  07:52 07:54+1107:54 07:56+102m21222.427107mWRPanchmahal, Gujarat
20/==/GDAGodhra Junction (3)  08:20+308:25+35m21233.358122mWRGodhra, Gujarat
21/==/SATSant Road (2)  08:44 08:46+2108:46 08:47+212 1m21253.765169mWROrwara, Gujarat
22/==/PPDPiplod Junction  08:56 08:58+2308:58 08:59+252 1m21265.568209mWRPiplod, Gujarat
23/==/LMKLimkhedaXO  09:04 09:06+2809:06 09:08+302m21273.525205mWRLimkheda, Gujarat
24/==/MAMMangal Mahudi (2)X  09:27 09:29+1809:29 09:30+182 1m21282.197248mWRDabhada, Gujarat
25/==/DHDDahod (3)XO  09:50 09:45+2709:55 09:50+265m21306.445313mWRDahod, Gujarat
26/==/BIOBordi (2)  10:02 10:04+2510:04 10:05+252 1m--1317.068289mWRNational Highway 59, Gujarat
27/==/ANASAnas (2)X  10:10 10:12+2510:12 10:13+262 1m--1324.973288mWRMadhya Pradesh 389154 ?, Madhya Pradesh
28/==/MGNMeghnagar (3)  10:23 10:25+2810:25 10:27+292m--1339.560317mWRJhabua, Madhya Pradesh
29/==/THDRThandla Road (2)  10:33 10:35+2910:35 10:36+292 1m--1347.564317mWRJhabua, Madhya Pradesh
30/==/PCNPanch Pipila (2)  10:47 10:49+2910:49 10:50+312 1m--1361.452369mWRSH 39A, Madhya Pradesh
31/==/AGRAmargarh (2)  10:59 11:01+3011:01 11:02+302 1m--1370.950410mWRSH 39A, Madhya Pradesh
32/==/BMIBamnia (2)  11:06 11:07+3011:08 11:09+302m--1375.045392mWRBamnia, Madhya Pradesh
33/==/BOGBhairongarh (2)  11:15 11:17+2911:17 11:18+292 1m--1381.065374mWRBhairongarh Railway Station, Madhya Pradesh
34/==/RTIRaoti (2)X  11:27 11:29+3111:29 11:30+312 1m--1392.954409mWRState Highway 39A, Madhya Pradesh
35/==/BILDBildi (2)X  11:36 11:38+3111:38 11:39+312 1m--1400.060422mWRMadhya Pradesh, Madhya Pradesh
36/==/MRNMorwani (2)X  11:46 11:48+3211:48 11:49+322 1m--1409.121459mWRDantoda, Madhya Pradesh
37/==/RTMRatlam Junction (7)X  12:20+2612:40+2420m51419.849495mWRRatlam 457001, Madhya Pradesh
38/==/BODBangrod  12:50 12:52+3012:52 12:53+302 1m--1429.655484mWRRatlam, Madhya Pradesh
39/==/RNHRunkhera  12:59 13:01+3213:01 13:02+322 1m--1437.057478mWRUjjain, Madhya Pradesh
40/==/KUHKhachrod (2)X  13:11 13:13+3013:13 13:15+312m--1447.514497mWRUjjain, Madhya Pradesh
41/==/NADNagda Junction (4)  14:15+314:25+310m11461.257468mWRNagda, Madhya Pradesh
42/==/MEPMahidpur RoadX  14:43+514:45+72m--1478.380493mWCRGogapur, Madhya Pradesh
43/==/LNRLuni RichhaX  14:53+914:55+102m--1488.961471mWCRAlote, Madhya Pradesh
44/==/VMAVikramgarh Alot (2)  15:08+815:10+92m21502.251443mWCRKota Division, Madhya Pradesh
45/==/THURThuria  15:19+915:21+92m--1509.871430mWCRMDR 45, Madhya Pradesh
46/==/CMUChau Mahla (3)X  15:33+915:35+122m21524.066426mWCRJhalawar, Rajasthan
47/==/SVASuwasra (2)X  15:48 15:49+1215:50+142 1m--1539.462450mWCRSuwasra, Madhya Pradesh
48/==/SGZShamgarh (3)X  16:03+1416:08+145m--1552.859463mWCRMandsaur, Madhya Pradesh
49/==/GOHGaroth (2)X  16:18 16:19+1316:20+152 1m21563.772441mWCRMadhya Pradesh 458880, Madhya Pradesh
50/==/BWMBhawani Mandi (3)X  16:39+1316:41+162m--1586.358384mWCRBhawani Mandi, Madhya Pradesh
51/==/JHWJhalawar Road (3)  16:58+1317:00+132m--1602.857361mWCRJhalawar City, Rajasthan
52/==/RMARamganj Mandi Junction (3)X  17:13+1017:15+142m--1615.242358mWCRRamganj Mandi, Rajasthan
53/==/MKXMorak (2)  17:28+1117:30+122m--1624.268337mWCRMorak, Rajasthan
54/==/DARADaraX  17:43+1317:45+142m--1639.060354mWCRDara, Rajasthan
55/==/DKNTDakaniya Talav (2)O  18:33 18:23+1018:35 18:25+132m11677.114278mWCRKota, Rajasthan
56/==/KOTAKota Junction (5)X  19:00 19:05+119:30 19:35+830m11686.436256mWCRKota, Rajasthan
57|--|GQLGurla  19:39 19:44+1319:41 19:46+122m--1691.853251mWCRSH 33, Rajasthan
58/==/KPTNKeshorai PatanXO  19:50 19:55+1219:52 19:57+122m--1699.886243mWCRSH 33, Rajasthan
59/==/LKELakheri (3)X  20:22 20:30+1820:24 20:32+192m--1746.951228mWCRBundi, Rajasthan
60/==/IDGIndargarh Sumerganj Mandi (2)XO  20:38 20:45+1920:40 20:47+202m--1757.953247mWCRIndargarh, Rajasthan
61/==/SWMSawai Madhopur Junction (4)  21:10 21:28+1521:15 21:30+195 2m--1794.179266mWCRSawai Madhopur, Rajasthan
62/==/MLZMalarnaO  21:43 21:53+2221:45 21:55+222m--1824.345236mWCRSawai Madhopur, Rajasthan
63/==/GGCGangapur City (3)  22:35 22:40+1522:40 22:45+195m21858.089270mWCRGangapur, Rajasthan
64/==/SMBJShri Mahabirji (3)  23:10 23:08+2723:12 23:10+282m--1892.147240mWCRKarauli, Rajasthan
65/==/HANHindaun City (2)O  23:23+2523:25+272m--1902.344230mWCRKarauli, Rajasthan
66/==/BXNBayana Junction (3)  00:10+1900:15+215m--2935.257198mWCRBayana, Rajasthan
67/==/BTEBharatpur Junction (5)X  00:55 00:59+1301:00+355 1m--2977.225174mWCRBharatpur, Rajasthan
68/==/MTJMathura Junction (10)  02:20+902:25+135m321010.775179mNCRMathura, Uttar Pradesh
69/==/KSVKosi Kalan (3)  02:58+1503:00+162m121052.148189mNCRKosi Kalan, Uttar Pradesh
70/==/PWLPalwal (8)O  03:53-103:55+22m--21094.662200mNRPalwal, Haryana
71/==/ASTAsaoti (5)  04:08 04:06+604:10 04:08+62m321105.959203mNRAsaoti, Haryana
72/==/BVHBallabgarh (5)  04:20 04:18+904:22 04:20+92m321115.837203mNRFaridabad, Haryana
73/==/FDBFaridabad (4)O  04:33+1004:35+102m221123.939206mNRold Faridabad, Haryana
74/==/TKDTuglakabad (2)  04:47 04:52+1004:49 04:54+112m221134.945213mNRNear Tughlakabad Metro Station, Delhi NCT
75/==/OKAOkhla (4)O  05:06 05:02+1305:08 05:04+132m--21141.014221mNRIshwar Nagar Mathura Road, Delhi NCT
76/==/NZMDelhi Hazrat Nizamuddin (7)X05:25 05:20+1305:50+1425 30m121144.642209mNRNew Delhi 110013, Delhi NCT
77/==/SBBSahibabad Junction (5)X  06:11 06:13+3606:13 06:15+372m--21160.722209mNRGhaziabad, Uttar Pradesh
78/==/GZBGhaziabad Junction (6)  06:33+3306:35+332m121167.459217mNRGhaziabad, Uttar Pradesh
79%==%GZNNew Ghaziabad (2)  06:41-06:43-2m--21173.370213mNRGhaziabad, Uttar Pradesh
80%==%MUDMuradnagar (2)  06:53+5306:55+1:022m--21185.067220mNRGhaziabad, Uttar Pradesh
81%==%MDNRModinagar (2)X  07:04+1:0507:06+1:082m--21195.149221mNRGhaziabad, Uttar Pradesh
82%==%MTCMeerut City Junction (6)XO  07:25 07:30+1:0108:30 08:43+3965 73m421214.652229mNRMeerut, Uttar Pradesh
83%--%MUTMeerut Cantt. (2)  08:38 08:48+4108:40 08:50+462m--21218.925230mNRMeerut, Uttar Pradesh
84%--%PQYPabli Khas (1) new halt!!X  09:01+4409:03+472m--21223.533229mNRMeerut, Uttar Pradesh
85%--%DRLADaurala (1) new halt!!X  09:15+4409:17+482m--21230.157232mNRMeerut, Uttar Pradesh
86%--%KATKhatauli (2)  09:58 09:36+4410:00 09:38+452m121248.034239mNRKhatauli, Uttar Pradesh
87%--%JDWJarauda Nara (1) new halt!!X  10:09+3810:10+381m--21265.514245mNRMuzaffarNagar, Uttar Pradesh
88%--%MOZMuzaffarnagar (3)X  10:35 10:30+2610:37 10:32+302m221270.233247mNRMuzaffarNagar, Uttar Pradesh
89%--%BMHRBamanheri (2) new halt!!X  10:41+2910:43+302m--21275.250249mNRMuzaffarnagar, Uttar Pradesh
90%--%DBDDeoband (2)X  11:13 11:06+2311:15 11:08+232m--21294.231258mNRSaharanpur, Uttar Pradesh
91/--/SRESaharanpur Junction (6)XO12:10 12:15+612:45+235 30m521328.477276mNRSaharanpur, Uttar Pradesh
92/==/RKRoorkee (3)  13:15 13:12+2613:17+252 5m121363.138264mNRRoorkee - 247667, Uttarakhand
93/==/LRJLaksar Junction (4)X13:45+2214:10+2925m--21380.969238mNRLaksar, Uttarakhand
94%--%JWPJwalapur  14:30+5514:32+1:002m121403.913292mNRHaridwar, Uttarakhand
95%--%HWHaridwar Junction (9)•X  14:50+4515:15 15:20+4125 30m121407.927294mNRHaridwar, Uttarakhand
96|--|MOTCMotichur (2)  15:25 15:30+4715:27 15:32+502m121412.436312mNRHaridwar, Uttarakhand
97%--%RWLRaiwala Junction (2)  15:48 15:43+4915:50 15:45+532m121419.027361mNRRishikesh, Uttarakhand
98%--%DWODoiwala  16:33 16:31+4416:35 16:33+472m121439.719484mNRDehradun, Uttarakhand
99%--%DDNDehradun (4)  17:35+18-321459.5-648mNRDehradun, Uttarakhand
Scroll to Top
Scroll to Bottom


Go to Mobile site